sensor_id;sensor_type;location;lat;lon;timestamp;temperature;humidity
12504;DHT22;6316;48.118;-1.690;2024-01-15T00:01:45;4.90;99.90
12504;DHT22;6316;48.118;-1.690;2024-01-15T00:04:11;4.80;99.90
12504;DHT22;6316;48.118;-1.690;2024-01-15T00:06:37;4.80;99.90
12504;DHT22;6316;48.118;-1.690;2024-01-15T00:09:02;4.80;99.90
12504;DHT22;6316;48.118;-1.690;2024-01-15T00:11:28;4.90;99.90
12504;DHT22;6316;48.118;-1.690;2024-01-15T00:13:54;4.80;99.90
12504;DHT22;6316;48.118;-1.690;2024-01-15T00:16:19;4.80;99.90
12504;DHT22;6316;48.118;-1.690;2024-01-15T00:18:45;4.90;99.90
12504;DHT22;6316;48.118;-1.690;2024-01-15T00:21:10;4.80;99.90
12504;DHT22;6316;48.118;-1.690;2024-01-15T00:23:36;4.80;99.90
12504;DHT22;6316;48.118;-1.690;2024-01-15T00:26:02;4.90;99.90
12504;DHT22;6316;48.118;-1.690;2024-01-15T00:28:27;4.90;99.90
12504;DHT22;6316;48.118;-1.690;2024-01-15T00:30:53;4.90;99.90
12504;DHT22;6316;48.118;-1.690;2024-01-15T00:33:18;4.80;99.90
12504;DHT22;6316;48.118;-1.690;2024-01-15T00:35:44;4.80;99.90
12504;DHT22;6316;48.118;-1.690;2024-01-15T00:38:10;4.80;99.90
12504;DHT22;6316;48.118;-1.690;2024-01-15T00:40:35;4.80;99.90
12504;DHT22;6316;48.118;-1.690;2024-01-15T00:43:01;4.80;99.90
12504;DHT22;6316;48.118;-1.690;2024-01-15T00:45:28;4.90;99.90
12504;DHT22;6316;48.118;-1.690;2024-01-15T00:47:53;4.90;99.90
12504;DHT22;6316;48.118;-1.690;2024-01-15T00:50:21;4.90;99.90
12504;DHT22;6316;48.118;-1.690;2024-01-15T00:52:47;4.90;99.90
12504;DHT22;6316;48.118;-1.690;2024-01-15T00:55:13;4.90;99.90
12504;DHT22;6316;48.118;-1.690;2024-01-15T00:57:39;4.90;99.90
12504;DHT22;6316;48.118;-1.690;2024-01-15T01:00:06;4.90;99.90
12504;DHT22;6316;48.118;-1.690;2024-01-15T01:02:32;4.90;99.90
12504;DHT22;6316;48.118;-1.690;2024-01-15T01:04:57;4.90;99.90
12504;DHT22;6316;48.118;-1.690;2024-01-15T01:07:23;4.90;99.90
12504;DHT22;6316;48.118;-1.690;2024-01-15T01:09:48;4.90;99.90
12504;DHT22;6316;48.118;-1.690;2024-01-15T01:12:14;4.90;99.90
12504;DHT22;6316;48.118;-1.690;2024-01-15T01:14:40;5.00;99.90
12504;DHT22;6316;48.118;-1.690;2024-01-15T01:17:06;4.80;99.90
12504;DHT22;6316;48.118;-1.690;2024-01-15T01:19:31;4.90;99.90
12504;DHT22;6316;48.118;-1.690;2024-01-15T01:21:57;4.90;99.90
12504;DHT22;6316;48.118;-1.690;2024-01-15T01:24:22;4.90;99.90
12504;DHT22;6316;48.118;-1.690;2024-01-15T01:26:48;4.90;99.90
12504;DHT22;6316;48.118;-1.690;2024-01-15T01:29:14;4.90;99.90
12504;DHT22;6316;48.118;-1.690;2024-01-15T01:31:46;5.00;99.90
12504;DHT22;6316;48.118;-1.690;2024-01-15T01:34:16;5.00;99.90
12504;DHT22;6316;48.118;-1.690;2024-01-15T01:36:42;5.00;99.90
12504;DHT22;6316;48.118;-1.690;2024-01-15T01:39:08;4.90;99.90
12504;DHT22;6316;48.118;-1.690;2024-01-15T01:41:34;4.90;99.90
12504;DHT22;6316;48.118;-1.690;2024-01-15T01:44:00;4.90;99.90
12504;DHT22;6316;48.118;-1.690;2024-01-15T01:46:27;5.00;99.90
12504;DHT22;6316;48.118;-1.690;2024-01-15T01:48:54;4.90;99.90
12504;DHT22;6316;48.118;-1.690;2024-01-15T01:51:22;4.90;99.90
12504;DHT22;6316;48.118;-1.690;2024-01-15T01:53:48;5.00;99.90
12504;DHT22;6316;48.118;-1.690;2024-01-15T01:56:15;4.90;99.90
12504;DHT22;6316;48.118;-1.690;2024-01-15T01:58:42;4.90;99.90
12504;DHT22;6316;48.118;-1.690;2024-01-15T02:01:08;4.90;99.90
12504;DHT22;6316;48.118;-1.690;2024-01-15T02:03:34;4.90;99.90
12504;DHT22;6316;48.118;-1.690;2024-01-15T02:06:00;5.00;99.90
12504;DHT22;6316;48.118;-1.690;2024-01-15T02:08:26;4.90;99.90
12504;DHT22;6316;48.118;-1.690;2024-01-15T02:10:52;4.90;99.90
12504;DHT22;6316;48.118;-1.690;2024-01-15T02:13:20;4.90;99.90
12504;DHT22;6316;48.118;-1.690;2024-01-15T02:15:46;4.90;99.90
12504;DHT22;6316;48.118;-1.690;2024-01-15T02:18:12;4.90;99.90
12504;DHT22;6316;48.118;-1.690;2024-01-15T02:20:37;4.90;99.90
12504;DHT22;6316;48.118;-1.690;2024-01-15T02:23:14;4.90;99.90
12504;DHT22;6316;48.118;-1.690;2024-01-15T02:25:42;4.90;99.90
12504;DHT22;6316;48.118;-1.690;2024-01-15T02:28:13;4.90;99.90
12504;DHT22;6316;48.118;-1.690;2024-01-15T02:30:40;4.80;99.90
12504;DHT22;6316;48.118;-1.690;2024-01-15T02:33:07;4.90;99.90
12504;DHT22;6316;48.118;-1.690;2024-01-15T02:35:32;4.90;99.90
12504;DHT22;6316;48.118;-1.690;2024-01-15T02:37:58;4.90;99.90
12504;DHT22;6316;48.118;-1.690;2024-01-15T02:40:24;4.90;99.90
12504;DHT22;6316;48.118;-1.690;2024-01-15T02:42:50;4.90;99.90
12504;DHT22;6316;48.118;-1.690;2024-01-15T02:45:16;4.90;99.90
12504;DHT22;6316;48.118;-1.690;2024-01-15T02:47:42;4.90;99.90
12504;DHT22;6316;48.118;-1.690;2024-01-15T02:50:07;4.90;99.90
12504;DHT22;6316;48.118;-1.690;2024-01-15T02:52:33;4.90;99.90
12504;DHT22;6316;48.118;-1.690;2024-01-15T02:54:58;4.80;99.90
12504;DHT22;6316;48.118;-1.690;2024-01-15T02:57:24;5.00;99.90
12504;DHT22;6316;48.118;-1.690;2024-01-15T02:59:50;5.00;99.90
12504;DHT22;6316;48.118;-1.690;2024-01-15T03:02:15;4.90;99.90
12504;DHT22;6316;48.118;-1.690;2024-01-15T03:04:44;4.90;99.90
12504;DHT22;6316;48.118;-1.690;2024-01-15T03:07:10;4.90;99.90
12504;DHT22;6316;48.118;-1.690;2024-01-15T03:09:36;4.90;99.90
12504;DHT22;6316;48.118;-1.690;2024-01-15T03:12:02;4.90;99.90
12504;DHT22;6316;48.118;-1.690;2024-01-15T03:14:27;4.90;99.90
12504;DHT22;6316;48.118;-1.690;2024-01-15T03:16:53;4.90;99.90
12504;DHT22;6316;48.118;-1.690;2024-01-15T03:19:19;4.90;99.90
12504;DHT22;6316;48.118;-1.690;2024-01-15T03:21:44;5.00;99.90
12504;DHT22;6316;48.118;-1.690;2024-01-15T03:24:10;4.90;99.90
12504;DHT22;6316;48.118;-1.690;2024-01-15T03:26:36;4.90;99.90
12504;DHT22;6316;48.118;-1.690;2024-01-15T03:29:02;4.90;99.90
12504;DHT22;6316;48.118;-1.690;2024-01-15T03:31:27;4.90;99.90
12504;DHT22;6316;48.118;-1.690;2024-01-15T03:33:53;4.90;99.90
12504;DHT22;6316;48.118;-1.690;2024-01-15T03:36:19;4.90;99.90
12504;DHT22;6316;48.118;-1.690;2024-01-15T03:38:44;4.90;99.90
12504;DHT22;6316;48.118;-1.690;2024-01-15T03:41:10;4.90;99.90
12504;DHT22;6316;48.118;-1.690;2024-01-15T03:43:37;4.90;99.90
12504;DHT22;6316;48.118;-1.690;2024-01-15T03:46:02;4.90;99.90
12504;DHT22;6316;48.118;-1.690;2024-01-15T03:48:28;5.00;99.90
12504;DHT22;6316;48.118;-1.690;2024-01-15T03:50:53;5.00;99.90
12504;DHT22;6316;48.118;-1.690;2024-01-15T03:53:19;5.00;99.90
12504;DHT22;6316;48.118;-1.690;2024-01-15T03:55:45;5.00;99.90
12504;DHT22;6316;48.118;-1.690;2024-01-15T03:58:10;5.00;99.90
12504;DHT22;6316;48.118;-1.690;2024-01-15T04:00:36;5.00;99.90
12504;DHT22;6316;48.118;-1.690;2024-01-15T04:03:02;5.00;99.90
12504;DHT22;6316;48.118;-1.690;2024-01-15T04:05:27;5.00;99.90
12504;DHT22;6316;48.118;-1.690;2024-01-15T04:07:53;5.00;99.90
12504;DHT22;6316;48.118;-1.690;2024-01-15T04:10:19;5.00;99.90
12504;DHT22;6316;48.118;-1.690;2024-01-15T04:12:44;5.00;99.90
12504;DHT22;6316;48.118;-1.690;2024-01-15T04:15:12;5.00;99.90
12504;DHT22;6316;48.118;-1.690;2024-01-15T04:17:38;5.00;99.90
12504;DHT22;6316;48.118;-1.690;2024-01-15T04:20:04;5.00;99.90
12504;DHT22;6316;48.118;-1.690;2024-01-15T04:22:30;5.00;99.90
12504;DHT22;6316;48.118;-1.690;2024-01-15T04:24:56;5.00;99.90
12504;DHT22;6316;48.118;-1.690;2024-01-15T04:27:21;5.00;99.90
12504;DHT22;6316;48.118;-1.690;2024-01-15T04:29:47;5.00;99.90
12504;DHT22;6316;48.118;-1.690;2024-01-15T04:32:13;5.00;99.90
12504;DHT22;6316;48.118;-1.690;2024-01-15T04:34:38;5.00;99.90
12504;DHT22;6316;48.118;-1.690;2024-01-15T04:37:04;5.00;99.90
12504;DHT22;6316;48.118;-1.690;2024-01-15T04:39:29;4.90;99.90
12504;DHT22;6316;48.118;-1.690;2024-01-15T04:41:55;5.00;99.90
12504;DHT22;6316;48.118;-1.690;2024-01-15T04:44:22;5.00;99.90
12504;DHT22;6316;48.118;-1.690;2024-01-15T04:46:47;4.90;99.90
12504;DHT22;6316;48.118;-1.690;2024-01-15T04:49:13;5.00;99.90
12504;DHT22;6316;48.118;-1.690;2024-01-15T04:51:39;5.00;99.90
12504;DHT22;6316;48.118;-1.690;2024-01-15T04:54:04;5.00;99.90
12504;DHT22;6316;48.118;-1.690;2024-01-15T04:56:30;5.00;99.90
12504;DHT22;6316;48.118;-1.690;2024-01-15T04:58:56;5.00;99.90
12504;DHT22;6316;48.118;-1.690;2024-01-15T05:01:21;5.00;99.90
12504;DHT22;6316;48.118;-1.690;2024-01-15T05:03:47;5.00;99.90
12504;DHT22;6316;48.118;-1.690;2024-01-15T05:06:12;5.00;99.90
12504;DHT22;6316;48.118;-1.690;2024-01-15T05:08:38;4.90;99.90
12504;DHT22;6316;48.118;-1.690;2024-01-15T05:11:04;5.00;99.90
12504;DHT22;6316;48.118;-1.690;2024-01-15T05:13:29;5.00;99.90
12504;DHT22;6316;48.118;-1.690;2024-01-15T05:15:55;5.00;99.90
12504;DHT22;6316;48.118;-1.690;2024-01-15T05:18:21;5.00;99.90
12504;DHT22;6316;48.118;-1.690;2024-01-15T05:20:46;5.00;99.90
12504;DHT22;6316;48.118;-1.690;2024-01-15T05:23:12;5.00;99.90
12504;DHT22;6316;48.118;-1.690;2024-01-15T05:25:37;5.00;99.90
12504;DHT22;6316;48.118;-1.690;2024-01-15T05:28:04;5.00;99.90
12504;DHT22;6316;48.118;-1.690;2024-01-15T05:30:29;5.10;99.90
12504;DHT22;6316;48.118;-1.690;2024-01-15T05:32:55;5.00;99.90
12504;DHT22;6316;48.118;-1.690;2024-01-15T05:35:21;5.10;99.90
12504;DHT22;6316;48.118;-1.690;2024-01-15T05:37:46;5.00;99.90
12504;DHT22;6316;48.118;-1.690;2024-01-15T05:40:12;5.10;99.90
12504;DHT22;6316;48.118;-1.690;2024-01-15T05:42:39;5.00;99.90
12504;DHT22;6316;48.118;-1.690;2024-01-15T05:45:05;5.00;99.90
12504;DHT22;6316;48.118;-1.690;2024-01-15T05:47:31;5.10;99.90
12504;DHT22;6316;48.118;-1.690;2024-01-15T05:49:57;5.10;99.90
12504;DHT22;6316;48.118;-1.690;2024-01-15T05:52:23;5.00;99.90
12504;DHT22;6316;48.118;-1.690;2024-01-15T05:54:49;5.10;99.90
12504;DHT22;6316;48.118;-1.690;2024-01-15T05:57:15;5.00;99.90
12504;DHT22;6316;48.118;-1.690;2024-01-15T05:59:41;5.00;99.90
12504;DHT22;6316;48.118;-1.690;2024-01-15T06:02:07;5.00;99.90
12504;DHT22;6316;48.118;-1.690;2024-01-15T06:04:32;5.10;99.90
12504;DHT22;6316;48.118;-1.690;2024-01-15T06:06:58;5.00;99.90
12504;DHT22;6316;48.118;-1.690;2024-01-15T06:09:23;5.00;99.90
12504;DHT22;6316;48.118;-1.690;2024-01-15T06:11:49;5.20;99.90
12504;DHT22;6316;48.118;-1.690;2024-01-15T06:14:15;5.00;99.90
12504;DHT22;6316;48.118;-1.690;2024-01-15T06:16:40;5.10;99.90
12504;DHT22;6316;48.118;-1.690;2024-01-15T06:19:06;5.00;99.90
12504;DHT22;6316;48.118;-1.690;2024-01-15T06:21:31;5.10;99.90
12504;DHT22;6316;48.118;-1.690;2024-01-15T06:23:57;5.10;99.90
12504;DHT22;6316;48.118;-1.690;2024-01-15T06:26:23;5.10;99.90
12504;DHT22;6316;48.118;-1.690;2024-01-15T06:28:48;5.10;99.90
12504;DHT22;6316;48.118;-1.690;2024-01-15T06:31:14;5.10;99.90
12504;DHT22;6316;48.118;-1.690;2024-01-15T06:33:40;5.10;99.90
12504;DHT22;6316;48.118;-1.690;2024-01-15T06:36:06;5.10;99.90
12504;DHT22;6316;48.118;-1.690;2024-01-15T06:38:32;5.10;99.90
12504;DHT22;6316;48.118;-1.690;2024-01-15T06:40:57;5.10;99.90
12504;DHT22;6316;48.118;-1.690;2024-01-15T06:43:23;5.10;99.90
12504;DHT22;6316;48.118;-1.690;2024-01-15T06:45:49;5.10;99.90
12504;DHT22;6316;48.118;-1.690;2024-01-15T06:48:15;5.10;99.90
12504;DHT22;6316;48.118;-1.690;2024-01-15T06:50:42;5.20;99.90
12504;DHT22;6316;48.118;-1.690;2024-01-15T06:53:08;5.10;99.90
12504;DHT22;6316;48.118;-1.690;2024-01-15T06:55:34;5.10;99.90
12504;DHT22;6316;48.118;-1.690;2024-01-15T06:57:59;5.00;99.90
12504;DHT22;6316;48.118;-1.690;2024-01-15T07:00:25;5.10;99.90
12504;DHT22;6316;48.118;-1.690;2024-01-15T07:02:51;5.10;99.90
12504;DHT22;6316;48.118;-1.690;2024-01-15T07:05:17;5.20;99.90
12504;DHT22;6316;48.118;-1.690;2024-01-15T07:07:43;5.10;99.90
12504;DHT22;6316;48.118;-1.690;2024-01-15T07:10:09;5.20;99.90
12504;DHT22;6316;48.118;-1.690;2024-01-15T07:12:34;5.10;99.90
12504;DHT22;6316;48.118;-1.690;2024-01-15T07:15:00;5.10;99.90
12504;DHT22;6316;48.118;-1.690;2024-01-15T07:17:28;5.10;99.90
12504;DHT22;6316;48.118;-1.690;2024-01-15T07:19:53;5.10;99.90
12504;DHT22;6316;48.118;-1.690;2024-01-15T07:22:19;5.10;99.90
12504;DHT22;6316;48.118;-1.690;2024-01-15T07:24:45;5.10;99.90
12504;DHT22;6316;48.118;-1.690;2024-01-15T07:27:11;5.20;99.90
12504;DHT22;6316;48.118;-1.690;2024-01-15T07:29:37;5.20;99.90
12504;DHT22;6316;48.118;-1.690;2024-01-15T07:32:03;5.20;99.90
12504;DHT22;6316;48.118;-1.690;2024-01-15T07:34:29;5.20;99.90
12504;DHT22;6316;48.118;-1.690;2024-01-15T07:36:55;5.20;99.90
12504;DHT22;6316;48.118;-1.690;2024-01-15T07:39:20;5.20;99.90
12504;DHT22;6316;48.118;-1.690;2024-01-15T07:41:48;5.20;99.90
12504;DHT22;6316;48.118;-1.690;2024-01-15T07:44:13;5.20;99.90
12504;DHT22;6316;48.118;-1.690;2024-01-15T07:46:43;5.20;99.90
12504;DHT22;6316;48.118;-1.690;2024-01-15T07:49:09;5.20;99.90
12504;DHT22;6316;48.118;-1.690;2024-01-15T07:51:34;5.20;99.90
12504;DHT22;6316;48.118;-1.690;2024-01-15T07:54:00;5.20;99.90
12504;DHT22;6316;48.118;-1.690;2024-01-15T07:56:26;5.20;99.90
12504;DHT22;6316;48.118;-1.690;2024-01-15T07:58:52;5.20;99.90
12504;DHT22;6316;48.118;-1.690;2024-01-15T08:01:18;5.20;99.90
12504;DHT22;6316;48.118;-1.690;2024-01-15T08:03:44;5.20;99.90
12504;DHT22;6316;48.118;-1.690;2024-01-15T08:06:09;5.20;99.90
12504;DHT22;6316;48.118;-1.690;2024-01-15T08:08:36;5.20;99.90
12504;DHT22;6316;48.118;-1.690;2024-01-15T08:11:02;5.20;99.90
12504;DHT22;6316;48.118;-1.690;2024-01-15T08:13:28;5.20;99.90
12504;DHT22;6316;48.118;-1.690;2024-01-15T08:15:53;5.30;99.90
12504;DHT22;6316;48.118;-1.690;2024-01-15T08:18:19;5.20;99.90
12504;DHT22;6316;48.118;-1.690;2024-01-15T08:20:47;5.20;99.90
12504;DHT22;6316;48.118;-1.690;2024-01-15T08:23:12;5.30;99.90
12504;DHT22;6316;48.118;-1.690;2024-01-15T08:25:38;5.30;99.90
12504;DHT22;6316;48.118;-1.690;2024-01-15T08:28:04;5.30;99.90
12504;DHT22;6316;48.118;-1.690;2024-01-15T08:30:29;5.30;99.90
12504;DHT22;6316;48.118;-1.690;2024-01-15T08:32:56;5.30;99.90
12504;DHT22;6316;48.118;-1.690;2024-01-15T08:35:21;5.30;99.90
12504;DHT22;6316;48.118;-1.690;2024-01-15T08:37:51;5.30;99.90
12504;DHT22;6316;48.118;-1.690;2024-01-15T08:40:17;5.30;99.90
12504;DHT22;6316;48.118;-1.690;2024-01-15T08:42:43;5.30;99.90
12504;DHT22;6316;48.118;-1.690;2024-01-15T08:45:09;5.30;99.90
12504;DHT22;6316;48.118;-1.690;2024-01-15T08:47:35;5.30;99.90
12504;DHT22;6316;48.118;-1.690;2024-01-15T08:50:01;5.40;99.90
12504;DHT22;6316;48.118;-1.690;2024-01-15T08:52:28;5.40;99.90
12504;DHT22;6316;48.118;-1.690;2024-01-15T08:54:55;5.40;99.90
12504;DHT22;6316;48.118;-1.690;2024-01-15T08:57:20;5.40;99.90
12504;DHT22;6316;48.118;-1.690;2024-01-15T08:59:47;5.30;99.90
12504;DHT22;6316;48.118;-1.690;2024-01-15T09:02:13;5.30;99.90
12504;DHT22;6316;48.118;-1.690;2024-01-15T09:04:39;5.20;99.90
12504;DHT22;6316;48.118;-1.690;2024-01-15T09:07:04;5.20;99.90
12504;DHT22;6316;48.118;-1.690;2024-01-15T09:09:30;5.10;99.90
12504;DHT22;6316;48.118;-1.690;2024-01-15T09:11:56;5.00;99.90
12504;DHT22;6316;48.118;-1.690;2024-01-15T09:14:21;5.00;99.90
12504;DHT22;6316;48.118;-1.690;2024-01-15T09:16:49;5.00;99.90
12504;DHT22;6316;48.118;-1.690;2024-01-15T09:19:15;4.90;99.90
12504;DHT22;6316;48.118;-1.690;2024-01-15T09:21:41;4.90;99.90
12504;DHT22;6316;48.118;-1.690;2024-01-15T09:24:07;4.90;99.90
12504;DHT22;6316;48.118;-1.690;2024-01-15T09:26:32;4.90;99.90
12504;DHT22;6316;48.118;-1.690;2024-01-15T09:28:58;5.00;99.90
12504;DHT22;6316;48.118;-1.690;2024-01-15T09:31:24;5.00;99.90
12504;DHT22;6316;48.118;-1.690;2024-01-15T09:33:49;5.00;99.90
12504;DHT22;6316;48.118;-1.690;2024-01-15T09:36:18;5.00;99.90
12504;DHT22;6316;48.118;-1.690;2024-01-15T09:38:43;5.00;99.90
12504;DHT22;6316;48.118;-1.690;2024-01-15T09:41:09;5.10;99.90
12504;DHT22;6316;48.118;-1.690;2024-01-15T09:43:36;5.10;99.90
12504;DHT22;6316;48.118;-1.690;2024-01-15T09:46:03;5.30;99.90
12504;DHT22;6316;48.118;-1.690;2024-01-15T09:48:29;5.40;99.90
12504;DHT22;6316;48.118;-1.690;2024-01-15T09:50:57;5.50;99.90
12504;DHT22;6316;48.118;-1.690;2024-01-15T09:53:25;5.60;99.90
12504;DHT22;6316;48.118;-1.690;2024-01-15T09:55:52;5.80;99.90
12504;DHT22;6316;48.118;-1.690;2024-01-15T09:58:18;5.90;99.90
12504;DHT22;6316;48.118;-1.690;2024-01-15T10:00:44;6.10;99.90
12504;DHT22;6316;48.118;-1.690;2024-01-15T10:03:10;6.10;99.90
12504;DHT22;6316;48.118;-1.690;2024-01-15T10:05:37;6.20;99.90
12504;DHT22;6316;48.118;-1.690;2024-01-15T10:08:04;6.40;99.90
12504;DHT22;6316;48.118;-1.690;2024-01-15T10:10:30;6.40;99.90
12504;DHT22;6316;48.118;-1.690;2024-01-15T10:12:58;6.40;99.90
12504;DHT22;6316;48.118;-1.690;2024-01-15T10:15:25;6.50;99.90
12504;DHT22;6316;48.118;-1.690;2024-01-15T10:17:51;6.50;99.90
12504;DHT22;6316;48.118;-1.690;2024-01-15T10:20:17;6.50;99.90
12504;DHT22;6316;48.118;-1.690;2024-01-15T10:22:44;6.50;99.90
12504;DHT22;6316;48.118;-1.690;2024-01-15T10:25:14;6.60;99.90
12504;DHT22;6316;48.118;-1.690;2024-01-15T10:27:43;6.70;99.90
12504;DHT22;6316;48.118;-1.690;2024-01-15T10:30:10;6.80;99.90
12504;DHT22;6316;48.118;-1.690;2024-01-15T10:32:35;6.90;99.90
12504;DHT22;6316;48.118;-1.690;2024-01-15T10:35:01;7.10;99.90
12504;DHT22;6316;48.118;-1.690;2024-01-15T10:37:27;7.20;99.90
12504;DHT22;6316;48.118;-1.690;2024-01-15T10:39:53;7.20;99.90
12504;DHT22;6316;48.118;-1.690;2024-01-15T10:42:18;7.20;99.90
12504;DHT22;6316;48.118;-1.690;2024-01-15T10:44:45;7.20;99.90
12504;DHT22;6316;48.118;-1.690;2024-01-15T10:47:13;7.30;99.90
12504;DHT22;6316;48.118;-1.690;2024-01-15T10:49:40;7.30;99.90
12504;DHT22;6316;48.118;-1.690;2024-01-15T10:52:06;7.30;99.90
12504;DHT22;6316;48.118;-1.690;2024-01-15T10:54:32;7.30;99.90
12504;DHT22;6316;48.118;-1.690;2024-01-15T10:56:59;7.20;99.90
12504;DHT22;6316;48.118;-1.690;2024-01-15T10:59:25;7.20;99.90
12504;DHT22;6316;48.118;-1.690;2024-01-15T11:01:51;7.30;99.90
12504;DHT22;6316;48.118;-1.690;2024-01-15T11:04:21;7.30;99.90
12504;DHT22;6316;48.118;-1.690;2024-01-15T11:06:52;7.40;99.90
12504;DHT22;6316;48.118;-1.690;2024-01-15T11:09:18;7.40;99.90
12504;DHT22;6316;48.118;-1.690;2024-01-15T11:11:45;7.50;99.90
12504;DHT22;6316;48.118;-1.690;2024-01-15T11:15:00;7.40;99.90
12504;DHT22;6316;48.118;-1.690;2024-01-15T11:17:22;7.50;99.90
12504;DHT22;6316;48.118;-1.690;2024-01-15T11:19:49;7.50;99.90
12504;DHT22;6316;48.118;-1.690;2024-01-15T11:25:04;7.50;99.90
12504;DHT22;6316;48.118;-1.690;2024-01-15T11:27:47;7.50;99.90
12504;DHT22;6316;48.118;-1.690;2024-01-15T11:30:13;7.60;99.90
12504;DHT22;6316;48.118;-1.690;2024-01-15T11:32:40;7.60;99.90
12504;DHT22;6316;48.118;-1.690;2024-01-15T11:35:09;7.60;99.90
12504;DHT22;6316;48.118;-1.690;2024-01-15T11:38:07;7.60;99.90
12504;DHT22;6316;48.118;-1.690;2024-01-15T11:42:59;7.70;99.90
12504;DHT22;6316;48.118;-1.690;2024-01-15T11:45:25;7.70;99.90
12504;DHT22;6316;48.118;-1.690;2024-01-15T11:48:14;7.70;99.90
12504;DHT22;6316;48.118;-1.690;2024-01-15T11:50:44;7.70;99.90
12504;DHT22;6316;48.118;-1.690;2024-01-15T11:55:44;7.70;99.90
12504;DHT22;6316;48.118;-1.690;2024-01-15T11:58:10;7.70;99.90
12504;DHT22;6316;48.118;-1.690;2024-01-15T12:00:44;7.70;99.90
12504;DHT22;6316;48.118;-1.690;2024-01-15T12:03:11;7.60;99.90
12504;DHT22;6316;48.118;-1.690;2024-01-15T12:05:37;7.50;99.90
12504;DHT22;6316;48.118;-1.690;2024-01-15T12:08:04;7.30;99.90
12504;DHT22;6316;48.118;-1.690;2024-01-15T12:10:37;7.30;99.90
12504;DHT22;6316;48.118;-1.690;2024-01-15T12:13:12;7.30;99.90
12504;DHT22;6316;48.118;-1.690;2024-01-15T12:15:39;7.20;99.90
12504;DHT22;6316;48.118;-1.690;2024-01-15T12:18:09;7.30;99.90
12504;DHT22;6316;48.118;-1.690;2024-01-15T12:20:35;7.30;99.90
12504;DHT22;6316;48.118;-1.690;2024-01-15T12:23:02;7.30;99.90
12504;DHT22;6316;48.118;-1.690;2024-01-15T12:25:32;7.30;99.90
12504;DHT22;6316;48.118;-1.690;2024-01-15T12:27:59;7.30;99.90
12504;DHT22;6316;48.118;-1.690;2024-01-15T12:30:29;7.30;99.90
12504;DHT22;6316;48.118;-1.690;2024-01-15T12:32:57;7.30;99.90
12504;DHT22;6316;48.118;-1.690;2024-01-15T12:35:24;7.40;99.90
12504;DHT22;6316;48.118;-1.690;2024-01-15T12:37:54;7.40;99.90
12504;DHT22;6316;48.118;-1.690;2024-01-15T12:40:21;7.40;99.90
12504;DHT22;6316;48.118;-1.690;2024-01-15T12:42:47;7.40;99.90
12504;DHT22;6316;48.118;-1.690;2024-01-15T12:45:13;7.40;99.90
12504;DHT22;6316;48.118;-1.690;2024-01-15T12:47:40;7.40;99.90
12504;DHT22;6316;48.118;-1.690;2024-01-15T12:50:07;7.60;99.90
12504;DHT22;6316;48.118;-1.690;2024-01-15T12:52:33;7.50;99.90
12504;DHT22;6316;48.118;-1.690;2024-01-15T12:54:59;7.50;99.90
12504;DHT22;6316;48.118;-1.690;2024-01-15T12:57:25;7.60;99.90
12504;DHT22;6316;48.118;-1.690;2024-01-15T12:59:50;7.50;99.90
12504;DHT22;6316;48.118;-1.690;2024-01-15T13:02:17;7.50;99.90
12504;DHT22;6316;48.118;-1.690;2024-01-15T13:04:43;7.50;99.90
12504;DHT22;6316;48.118;-1.690;2024-01-15T13:07:09;7.50;99.90
12504;DHT22;6316;48.118;-1.690;2024-01-15T13:09:35;7.50;99.90
12504;DHT22;6316;48.118;-1.690;2024-01-15T13:12:01;7.60;99.90
12504;DHT22;6316;48.118;-1.690;2024-01-15T13:14:28;7.60;99.90
12504;DHT22;6316;48.118;-1.690;2024-01-15T13:16:53;7.70;99.90
12504;DHT22;6316;48.118;-1.690;2024-01-15T13:19:19;7.70;99.90
12504;DHT22;6316;48.118;-1.690;2024-01-15T13:21:47;7.70;99.90
12504;DHT22;6316;48.118;-1.690;2024-01-15T13:24:13;7.70;99.90
12504;DHT22;6316;48.118;-1.690;2024-01-15T13:26:40;7.80;99.90
12504;DHT22;6316;48.118;-1.690;2024-01-15T13:29:06;7.90;99.90
12504;DHT22;6316;48.118;-1.690;2024-01-15T13:31:32;7.90;99.90
12504;DHT22;6316;48.118;-1.690;2024-01-15T13:33:58;8.00;99.90
12504;DHT22;6316;48.118;-1.690;2024-01-15T13:36:25;8.00;99.90
12504;DHT22;6316;48.118;-1.690;2024-01-15T13:38:51;8.00;99.90
12504;DHT22;6316;48.118;-1.690;2024-01-15T13:41:18;8.10;99.90
12504;DHT22;6316;48.118;-1.690;2024-01-15T13:43:46;8.10;99.90
12504;DHT22;6316;48.118;-1.690;2024-01-15T13:46:11;8.10;99.90
12504;DHT22;6316;48.118;-1.690;2024-01-15T13:48:37;8.10;99.90
12504;DHT22;6316;48.118;-1.690;2024-01-15T13:51:03;8.00;99.90
12504;DHT22;6316;48.118;-1.690;2024-01-15T13:53:28;8.00;99.90
12504;DHT22;6316;48.118;-1.690;2024-01-15T13:55:55;7.90;99.90
12504;DHT22;6316;48.118;-1.690;2024-01-15T13:58:20;7.90;99.90
12504;DHT22;6316;48.118;-1.690;2024-01-15T14:00:47;7.80;99.90
12504;DHT22;6316;48.118;-1.690;2024-01-15T14:03:14;7.70;99.90
12504;DHT22;6316;48.118;-1.690;2024-01-15T14:05:39;7.80;99.90
12504;DHT22;6316;48.118;-1.690;2024-01-15T14:08:05;7.80;99.90
12504;DHT22;6316;48.118;-1.690;2024-01-15T14:10:31;7.80;99.90
12504;DHT22;6316;48.118;-1.690;2024-01-15T14:12:57;7.90;99.90
12504;DHT22;6316;48.118;-1.690;2024-01-15T14:15:22;7.80;99.90
12504;DHT22;6316;48.118;-1.690;2024-01-15T14:17:48;8.00;99.90
12504;DHT22;6316;48.118;-1.690;2024-01-15T14:20:13;8.00;99.90
12504;DHT22;6316;48.118;-1.690;2024-01-15T14:22:39;8.00;99.90
12504;DHT22;6316;48.118;-1.690;2024-01-15T14:25:05;8.00;99.90
12504;DHT22;6316;48.118;-1.690;2024-01-15T14:27:31;8.10;99.90
12504;DHT22;6316;48.118;-1.690;2024-01-15T14:29:57;8.00;99.90
12504;DHT22;6316;48.118;-1.690;2024-01-15T14:32:23;8.00;99.90
12504;DHT22;6316;48.118;-1.690;2024-01-15T14:34:49;8.00;99.90
12504;DHT22;6316;48.118;-1.690;2024-01-15T14:37:15;7.90;99.90
12504;DHT22;6316;48.118;-1.690;2024-01-15T14:39:40;7.80;99.90
12504;DHT22;6316;48.118;-1.690;2024-01-15T14:42:06;7.70;99.90
12504;DHT22;6316;48.118;-1.690;2024-01-15T14:44:31;7.60;99.90
12504;DHT22;6316;48.118;-1.690;2024-01-15T14:46:59;7.50;99.90
12504;DHT22;6316;48.118;-1.690;2024-01-15T14:49:24;7.50;99.90
12504;DHT22;6316;48.118;-1.690;2024-01-15T14:51:50;7.40;99.90
12504;DHT22;6316;48.118;-1.690;2024-01-15T14:54:16;7.30;99.90
12504;DHT22;6316;48.118;-1.690;2024-01-15T14:56:51;7.20;99.90
12504;DHT22;6316;48.118;-1.690;2024-01-15T14:59:17;7.20;99.90
12504;DHT22;6316;48.118;-1.690;2024-01-15T15:01:42;7.10;99.90
12504;DHT22;6316;48.118;-1.690;2024-01-15T15:04:08;7.20;99.90
12504;DHT22;6316;48.118;-1.690;2024-01-15T15:06:37;7.20;99.90
12504;DHT22;6316;48.118;-1.690;2024-01-15T15:09:03;7.30;99.90
12504;DHT22;6316;48.118;-1.690;2024-01-15T15:11:35;7.40;99.90
12504;DHT22;6316;48.118;-1.690;2024-01-15T15:14:01;7.40;99.90
12504;DHT22;6316;48.118;-1.690;2024-01-15T15:16:27;7.40;99.90
12504;DHT22;6316;48.118;-1.690;2024-01-15T15:18:53;7.40;99.90
12504;DHT22;6316;48.118;-1.690;2024-01-15T15:21:20;7.40;99.90
12504;DHT22;6316;48.118;-1.690;2024-01-15T15:23:45;7.40;99.90
12504;DHT22;6316;48.118;-1.690;2024-01-15T15:26:13;7.40;99.90
12504;DHT22;6316;48.118;-1.690;2024-01-15T15:28:39;7.30;99.90
12504;DHT22;6316;48.118;-1.690;2024-01-15T15:31:06;7.30;99.90
12504;DHT22;6316;48.118;-1.690;2024-01-15T15:33:36;7.30;99.90
12504;DHT22;6316;48.118;-1.690;2024-01-15T15:36:02;7.30;99.90
12504;DHT22;6316;48.118;-1.690;2024-01-15T15:38:31;7.20;99.90
12504;DHT22;6316;48.118;-1.690;2024-01-15T15:40:57;7.20;99.90
12504;DHT22;6316;48.118;-1.690;2024-01-15T15:43:22;7.20;99.90
12504;DHT22;6316;48.118;-1.690;2024-01-15T15:45:49;7.20;99.90
12504;DHT22;6316;48.118;-1.690;2024-01-15T15:48:14;7.20;99.90